Time;durP1;ratioP1;P1;durP2;ratioP2;P2;SDS_P1;SDS_P2;PMS_P1;PMS_P2;Temp;Humidity;BMP_temperature;BMP_pressure;BME280_temperature;BME280_humidity;BME280_pressure;Samples;Min_cycle;Max_cycle;Signal;HPM_P1;HPM_P2
2022/04/23 00:01:42;;;;;;;18.50;13.37;;;10.90;99.90;;;;;;5076687;28;20171;-78
2022/04/23 00:04:11;;;;;;;17.53;13.63;;;10.90;1.00;;;;;;5076056;28;20163;-77
2022/04/23 00:06:37;;;;;;;16.80;13.40;;;10.80;1.00;;;;;;5058106;28;20275;-77
2022/04/23 00:09:03;;;;;;;15.23;13.07;;;10.80;1.00;;;;;;5057985;28;20228;-77
2022/04/23 00:11:29;;;;;;;15.37;13.47;;;10.80;99.90;;;;;;5075221;28;20170;-78
2022/04/23 00:13:55;;;;;;;14.77;13.17;;;10.80;99.90;;;;;;5057675;28;20659;-78
2022/04/23 00:16:22;;;;;;;15.67;13.10;;;10.70;99.90;;;;;;5057675;28;20222;-78
2022/04/23 00:18:47;;;;;;;15.57;13.43;;;10.70;99.90;;;;;;5075900;28;20232;-78
2022/04/23 00:21:13;;;;;;;14.87;13.23;;;10.70;99.90;;;;;;5075581;28;20174;-76
2022/04/23 00:23:39;;;;;;;15.33;12.87;;;10.70;1.00;;;;;;5057758;28;20254;-78
2022/04/23 00:26:05;;;;;;;16.07;13.67;;;10.60;94.40;;;;;;5074632;28;20629;-77
2022/04/23 00:28:30;;;;;;;16.27;12.97;;;10.60;99.90;;;;;;5075169;28;20187;-77
2022/04/23 00:30:56;;;;;;;16.07;13.37;;;10.50;1.00;;;;;;5057489;28;20518;-77
2022/04/23 00:33:22;;;;;;;13.83;12.43;;;10.50;1.00;;;;;;5075301;28;20213;-77
2022/04/23 00:35:50;;;;;;;13.13;11.03;;;10.40;17.80;;;;;;5075348;28;20248;-77
2022/04/23 00:38:17;;;;;;;13.63;12.23;;;10.30;99.90;;;;;;5075209;28;20320;-77
2022/04/23 00:40:44;;;;;;;14.43;11.97;;;10.20;1.00;;;;;;5056945;28;20648;-77
2022/04/23 00:43:30;;;;;;;15.37;11.73;;;10.20;1.00;;;;;;5056843;28;20591;-79
2022/04/23 00:45:57;;;;;;;15.40;13.13;;;10.10;1.00;;;;;;5056817;28;20195;-77
2022/04/23 00:48:24;;;;;;;14.60;12.67;;;10.00;1.00;;;;;;5075081;28;20547;-77
2022/04/23 00:50:55;;;;;;;14.67;12.57;;;10.00;87.60;;;;;;5075054;28;20167;-77
2022/04/23 00:53:23;;;;;;;16.17;12.63;;;9.90;99.90;;;;;;5075020;28;20676;-77
2022/04/23 00:55:49;;;;;;;17.10;13.40;;;9.80;99.90;;;;;;5074287;28;20194;-78
2022/04/23 00:58:16;;;;;;;15.97;13.67;;;9.70;99.90;;;;;;5057215;28;20202;-77
2022/04/23 01:00:43;;;;;;;16.50;13.00;;;9.70;99.90;;;;;;5075163;28;20641;-77
2022/04/23 01:03:09;;;;;;;15.17;12.67;;;9.60;99.90;;;;;;5074904;28;20250;-77
2022/04/23 01:08:08;;;;;;;15.77;14.13;;;9.50;99.90;;;;;;5096639;22;20235;-74
2022/04/23 01:10:34;;;;;;;15.23;13.33;;;9.50;99.90;;;;;;5074412;28;20216;-74
2022/04/23 01:13:00;;;;;;;18.13;13.70;;;9.40;99.90;;;;;;5056611;28;20175;-73
2022/04/23 01:15:25;;;;;;;14.77;12.97;;;9.40;99.90;;;;;;5074692;28;20174;-73
2022/04/23 01:17:51;;;;;;;15.40;13.13;;;9.40;99.90;;;;;;5074342;28;20198;-73
2022/04/23 01:20:16;;;;;;;16.97;12.87;;;9.30;99.90;;;;;;5056540;28;20171;-73
2022/04/23 01:22:44;;;;;;;15.27;12.77;;;9.20;99.90;;;;;;5074420;28;20170;-73
2022/04/23 01:25:12;;;;;;;14.07;12.57;;;9.20;99.90;;;;;;5056214;28;20167;-74
2022/04/23 01:27:42;;;;;;;18.30;14.43;;;9.20;99.90;;;;;;5056117;28;20564;-73
2022/04/23 01:30:13;;;;;;;16.23;13.43;;;9.10;99.90;;;;;;5074529;28;20182;-74
2022/04/23 01:32:38;;;;;;;16.27;14.40;;;9.10;99.90;;;;;;5074479;28;20143;-73
2022/04/23 01:35:05;;;;;;;15.50;13.23;;;9.00;99.90;;;;;;5074236;28;20539;-73
2022/04/23 01:37:31;;;;;;;16.43;13.67;;;9.00;99.90;;;;;;5073963;28;20270;-71
2022/04/23 01:39:56;;;;;;;16.13;14.17;;;8.90;99.90;;;;;;5073086;28;20610;-73
2022/04/23 01:42:22;;;;;;;16.27;13.10;;;9.00;99.90;;;;;;5073716;28;20167;-73
2022/04/23 01:44:50;;;;;;;15.33;13.30;;;8.90;99.90;;;;;;5074269;28;20167;-75
2022/04/23 01:47:16;;;;;;;17.03;14.00;;;8.90;99.90;;;;;;5055819;28;20198;-73
2022/04/23 01:49:42;;;;;;;16.10;13.27;;;8.80;99.90;;;;;;5073903;28;20253;-73
2022/04/23 01:52:08;;;;;;;14.87;13.27;;;8.80;99.90;;;;;;5073940;28;20169;-73
2022/04/23 01:54:34;;;;;;;16.33;13.07;;;8.70;99.90;;;;;;5073665;28;20261;-73
2022/04/23 01:57:00;;;;;;;15.47;13.60;;;8.70;99.90;;;;;;5073127;28;20191;-73
2022/04/23 01:59:26;;;;;;;17.00;13.43;;;8.70;99.90;;;;;;5073688;28;20212;-73
2022/04/23 02:01:52;;;;;;;16.60;14.53;;;8.70;99.90;;;;;;5073667;28;20178;-73
2022/04/23 02:04:18;;;;;;;15.33;12.77;;;8.70;99.90;;;;;;5073611;28;20212;-73
2022/04/23 02:06:45;;;;;;;17.77;14.37;;;8.70;99.90;;;;;;5055365;28;20575;-72
2022/04/23 02:09:11;;;;;;;15.60;12.57;;;8.70;99.90;;;;;;5073581;28;20175;-73
2022/04/23 02:11:37;;;;;;;14.67;13.00;;;8.70;99.90;;;;;;5072921;28;20183;-73
2022/04/23 02:14:02;;;;;;;14.87;13.30;;;8.80;99.90;;;;;;5073720;28;20256;-73
2022/04/23 02:16:32;;;;;;;15.00;12.97;;;8.70;99.90;;;;;;5073372;28;20194;-73
2022/04/23 02:18:58;;;;;;;14.83;13.23;;;8.70;99.90;;;;;;5055235;28;20206;-73
2022/04/23 02:21:25;;;;;;;14.40;12.90;;;8.70;99.90;;;;;;5055371;28;20181;-73
2022/04/23 02:23:53;;;;;;;14.40;12.90;;;8.70;99.90;;;;;;5073357;28;20174;-73
2022/04/23 02:26:20;;;;;;;14.63;12.67;;;8.70;99.90;;;;;;5072887;28;20266;-72
2022/04/23 02:28:49;;;;;;;14.13;12.67;;;8.70;99.90;;;;;;5073204;28;20636;-72
2022/04/23 02:31:14;;;;;;;17.03;13.90;;;8.70;99.90;;;;;;5073145;28;20179;-73
2022/04/23 02:33:40;;;;;;;16.40;14.60;;;8.70;99.90;;;;;;5073210;28;20178;-75
2022/04/23 02:36:07;;;;;;;15.50;13.80;;;8.70;99.90;;;;;;5073171;28;20680;-72
2022/04/23 02:38:33;;;;;;;16.40;14.70;;;8.60;99.90;;;;;;5055145;28;20198;-73
2022/04/23 02:40:59;;;;;;;16.77;14.53;;;8.70;99.90;;;;;;5072689;28;20170;-73
2022/04/23 02:43:24;;;;;;;17.30;15.40;;;8.70;99.90;;;;;;5073165;28;20648;-73
2022/04/23 02:45:50;;;;;;;20.30;15.33;;;8.60;99.90;;;;;;5055032;28;20644;-73
2022/04/23 02:48:16;;;;;;;19.20;16.33;;;8.70;99.90;;;;;;5073045;28;20182;-73
2022/04/23 02:50:41;;;;;;;19.97;16.93;;;8.70;99.90;;;;;;5054772;28;20656;-73
2022/04/23 02:53:08;;;;;;;20.63;17.70;;;8.70;99.90;;;;;;5055033;28;20182;-73
2022/04/23 02:55:35;;;;;;;20.43;17.13;;;8.70;99.90;;;;;;5054595;28;20182;-73
2022/04/23 02:58:03;;;;;;;21.10;18.57;;;8.70;99.90;;;;;;5072878;28;20255;-73
2022/04/23 03:00:29;;;;;;;24.17;21.40;;;8.70;99.90;;;;;;5055006;28;20181;-73
2022/04/23 03:02:55;;;;;;;26.60;22.30;;;8.70;99.90;;;;;;5073146;28;20178;-73
2022/04/23 03:05:21;;;;;;;26.03;21.27;;;8.80;99.90;;;;;;5054966;28;20199;-73
2022/04/23 03:07:48;;;;;;;28.37;23.20;;;8.80;99.90;;;;;;5072666;28;20221;-73
2022/04/23 03:10:16;;;;;;;25.83;22.47;;;8.80;99.90;;;;;;5072789;28;20186;-73
2022/04/23 03:12:42;;;;;;;27.33;22.83;;;8.80;99.90;;;;;;5072428;28;20167;-73
2022/04/23 03:15:12;;;;;;;27.40;24.43;;;8.80;99.90;;;;;;5072734;28;20648;-74
2022/04/23 03:17:37;;;;;;;27.77;24.47;;;8.80;99.90;;;;;;5054414;28;20562;-73
2022/04/23 03:20:05;;;;;;;30.13;24.60;;;8.80;99.90;;;;;;5054966;28;20184;-73
2022/04/23 03:22:30;;;;;;;30.90;24.83;;;8.80;99.90;;;;;;5072791;28;20163;-72
2022/04/23 03:24:56;;;;;;;29.27;25.50;;;8.90;99.90;;;;;;5072682;28;20539;-72
2022/04/23 03:27:22;;;;;;;28.80;25.50;;;8.90;99.90;;;;;;5054238;28;20191;-72
2022/04/23 03:29:48;;;;;;;28.90;24.83;;;8.90;99.90;;;;;;5072748;28;20171;-72
2022/04/23 03:32:13;;;;;;;31.50;26.20;;;8.90;99.90;;;;;;5072453;28;20175;-73
2022/04/23 03:34:39;;;;;;;30.73;26.40;;;8.90;99.90;;;;;;5071983;28;20260;-72
2022/04/23 03:37:05;;;;;;;34.23;26.53;;;8.90;99.90;;;;;;5072651;28;20199;-72
2022/04/23 03:39:34;;;;;;;31.80;26.73;;;8.90;99.90;;;;;;5072250;28;20198;-72
2022/04/23 03:42:01;;;;;;;30.67;25.23;;;8.90;99.90;;;;;;5053866;28;20649;-72
2022/04/23 03:44:28;;;;;;;32.37;27.17;;;8.90;99.90;;;;;;5054221;28;20588;-74
2022/04/23 03:46:54;;;;;;;29.63;25.60;;;8.90;99.90;;;;;;5072511;28;20198;-73
2022/04/23 03:49:22;;;;;;;32.67;26.63;;;8.90;99.90;;;;;;5072405;28;20679;-73
2022/04/23 03:51:47;;;;;;;33.07;27.70;;;8.90;99.90;;;;;;5053097;28;20649;-73
2022/04/23 03:54:14;;;;;;;28.27;25.10;;;8.90;99.90;;;;;;5071997;28;20171;-74
2022/04/23 03:56:40;;;;;;;33.90;26.20;;;8.90;99.90;;;;;;5071842;28;20320;-73
2022/04/23 03:59:07;;;;;;;34.20;27.87;;;8.90;99.90;;;;;;5072339;28;20683;-74
2022/04/23 04:01:33;;;;;;;31.40;26.63;;;8.80;99.90;;;;;;5072704;28;20171;-73
2022/04/23 04:04:00;;;;;;;32.27;25.67;;;8.80;99.90;;;;;;5057840;28;20302;-73
2022/04/23 04:06:25;;;;;;;30.53;25.10;;;8.80;99.90;;;;;;5075955;28;20684;-73
2022/04/23 04:08:52;;;;;;;33.47;26.33;;;8.80;99.90;;;;;;5075775;28;20198;-72
2022/04/23 04:11:17;;;;;;;32.43;26.40;;;8.80;99.90;;;;;;5075992;28;20167;-73
2022/04/23 04:13:43;;;;;;;33.27;26.33;;;8.80;99.90;;;;;;5057731;28;20179;-74
2022/04/23 04:16:09;;;;;;;30.37;25.47;;;8.70;99.90;;;;;;5075717;28;20193;-73
2022/04/23 04:18:35;;;;;;;32.67;26.47;;;8.70;99.90;;;;;;5057559;28;20199;-74
2022/04/23 04:21:00;;;;;;;32.87;27.30;;;8.70;99.90;;;;;;5075549;28;20167;-74
2022/04/23 04:23:26;;;;;;;31.73;26.63;;;8.70;99.90;;;;;;5075605;28;20538;-73
2022/04/23 04:25:52;;;;;;;32.70;26.97;;;8.80;99.90;;;;;;5075716;28;20171;-74
2022/04/23 04:28:18;;;;;;;30.53;26.70;;;8.70;99.90;;;;;;5075479;28;20228;-74
2022/04/23 04:33:28;;;;;;;32.63;27.80;;;8.70;99.90;;;;;;5075512;28;20245;-73
2022/04/23 04:35:53;;;;;;;30.90;26.93;;;8.70;99.90;;;;;;5057375;28;20178;-73
2022/04/23 04:38:19;;;;;;;30.43;25.23;;;8.70;99.90;;;;;;5075601;28;20221;-73
2022/04/23 04:40:44;;;;;;;30.80;27.50;;;8.70;99.90;;;;;;5075395;28;20257;-73
2022/04/23 04:43:10;;;;;;;33.47;28.23;;;8.70;99.90;;;;;;5057532;28;20523;-73
2022/04/23 04:45:35;;;;;;;33.40;26.50;;;8.70;99.90;;;;;;5075271;28;20167;-73
2022/04/23 04:48:00;;;;;;;30.80;26.63;;;8.60;99.90;;;;;;5056913;28;20206;-74
2022/04/23 04:50:26;;;;;;;32.33;27.37;;;8.60;99.90;;;;;;5075133;28;20179;-73
2022/04/23 04:52:52;;;;;;;32.23;27.20;;;8.60;99.90;;;;;;5074945;28;20636;-73
2022/04/23 04:55:17;;;;;;;34.97;27.97;;;8.60;99.90;;;;;;5074844;28;20246;-73
2022/04/23 04:57:43;;;;;;;29.73;26.40;;;8.60;99.90;;;;;;5074770;28;20682;-73
2022/04/23 05:00:10;;;;;;;30.80;27.50;;;8.60;99.90;;;;;;5074805;28;20171;-73
2022/04/23 05:02:35;;;;;;;38.23;28.87;;;8.60;99.90;;;;;;5074789;28;20588;-73
2022/04/23 05:05:01;;;;;;;33.07;28.33;;;8.70;99.90;;;;;;5056639;28;20171;-73
2022/04/23 05:07:27;;;;;;;33.10;27.70;;;8.70;99.90;;;;;;5074339;28;20214;-73
2022/04/23 05:09:52;;;;;;;35.10;28.03;;;8.70;99.90;;;;;;5056626;28;20254;-73
2022/04/23 05:12:18;;;;;;;34.77;28.70;;;8.80;99.90;;;;;;5074270;28;20201;-73
2022/04/23 05:14:43;;;;;;;32.40;28.43;;;8.80;99.90;;;;;;5056593;28;20648;-72
2022/04/23 05:17:09;;;;;;;30.93;27.57;;;8.80;99.90;;;;;;5056426;28;20199;-73
2022/04/23 05:19:35;;;;;;;34.33;29.20;;;8.90;99.90;;;;;;5074569;28;20602;-73
2022/04/23 05:22:00;;;;;;;37.43;28.10;;;8.90;99.90;;;;;;5074275;28;20174;-73
2022/04/23 05:24:26;;;;;;;33.40;28.80;;;9.00;99.90;;;;;;5074306;28;20182;-73
2022/04/23 05:26:51;;;;;;;32.93;28.10;;;9.00;99.90;;;;;;5074646;28;20187;-73
2022/04/23 05:29:17;;;;;;;32.03;27.70;;;9.00;99.90;;;;;;5056440;28;20233;-73
2022/04/23 05:31:42;;;;;;;35.93;28.93;;;9.00;99.90;;;;;;5056201;28;20171;-73
2022/04/23 05:34:08;;;;;;;33.30;28.73;;;9.10;99.90;;;;;;5074027;28;20175;-73
2022/04/23 05:36:33;;;;;;;30.90;27.53;;;9.10;99.90;;;;;;5073929;28;20194;-73
2022/04/23 05:38:59;;;;;;;32.70;28.63;;;9.20;99.90;;;;;;5074076;28;20217;-73
2022/04/23 05:41:24;;;;;;;32.73;28.80;;;9.20;99.90;;;;;;5073901;28;20701;-73
2022/04/23 05:43:50;;;;;;;34.83;30.03;;;9.30;99.90;;;;;;5074110;28;20171;-73
2022/04/23 05:46:17;;;;;;;36.97;30.90;;;9.30;99.90;;;;;;5073792;28;20187;-73
2022/04/23 05:48:43;;;;;;;32.37;28.70;;;9.40;99.90;;;;;;5073718;28;20166;-73
2022/04/23 05:51:09;;;;;;;35.47;30.07;;;9.40;99.90;;;;;;5074024;28;20178;-73
2022/04/23 05:53:35;;;;;;;33.53;27.93;;;9.50;99.90;;;;;;5073720;28;20171;-73
2022/04/23 05:56:00;;;;;;;35.33;28.20;;;9.60;99.90;;;;;;5055734;28;20640;-72
2022/04/23 05:58:26;;;;;;;31.83;28.47;;;9.60;99.90;;;;;;5055658;28;20255;-74
2022/04/23 06:00:52;;;;;;;33.90;28.23;;;9.60;99.90;;;;;;5073596;28;20174;-73
2022/04/23 06:03:18;;;;;;;34.60;30.17;;;9.70;99.90;;;;;;5055641;28;20171;-73
2022/04/23 06:05:43;;;;;;;38.63;29.77;;;9.80;99.90;;;;;;5073712;28;20167;-73
2022/04/23 06:08:09;;;;;;;33.73;28.63;;;9.90;99.90;;;;;;5073243;28;20577;-73
2022/04/23 06:10:35;;;;;;;33.33;29.10;;;10.00;99.90;;;;;;5073371;28;20545;-73
2022/04/23 06:13:01;;;;;;;34.47;29.10;;;10.00;99.90;;;;;;5073302;28;20225;-73
2022/04/23 06:15:26;;;;;;;34.53;29.57;;;10.10;99.90;;;;;;5055424;28;20182;-73
2022/04/23 06:17:52;;;;;;;33.93;28.40;;;10.20;99.90;;;;;;5055199;28;20198;-73
2022/04/23 06:20:18;;;;;;;31.20;27.43;;;10.20;99.90;;;;;;5073292;28;20589;-73
2022/04/23 06:22:43;;;;;;;31.77;28.33;;;10.30;99.90;;;;;;5073319;28;20171;-73
2022/04/23 06:25:09;;;;;;;30.47;27.27;;;10.40;99.90;;;;;;5072732;28;20163;-73
2022/04/23 06:27:36;;;;;;;34.47;29.60;;;10.40;99.90;;;;;;5073114;28;20193;-74
2022/04/23 06:30:02;;;;;;;32.47;28.07;;;10.60;99.90;;;;;;5073190;28;20195;-74
2022/04/23 06:32:28;;;;;;;28.63;25.63;;;10.60;99.90;;;;;;5073193;28;20169;-74
2022/04/23 06:34:53;;;;;;;30.20;26.80;;;10.70;99.90;;;;;;5073400;28;20167;-74
2022/04/23 06:37:19;;;;;;;29.20;26.20;;;10.80;99.90;;;;;;5073566;28;20244;-74
2022/04/23 06:39:45;;;;;;;30.03;26.80;;;10.80;99.90;;;;;;5055129;28;20233;-74
2022/04/23 06:42:10;;;;;;;29.40;26.23;;;10.90;99.90;;;;;;5073167;28;20619;-74
2022/04/23 06:44:36;;;;;;;29.90;26.63;;;11.00;99.90;;;;;;5072997;28;20198;-75
2022/04/23 06:47:01;;;;;;;29.20;25.83;;;11.10;99.90;;;;;;5055104;28;20201;-74
2022/04/23 06:49:27;;;;;;;29.00;25.77;;;11.20;99.90;;;;;;5073064;28;20224;-74
2022/04/23 06:51:54;;;;;;;28.80;25.70;;;11.20;99.90;;;;;;5073227;28;20175;-74
2022/04/23 06:54:20;;;;;;;27.83;23.80;;;11.30;99.90;;;;;;5073352;28;20171;-74
2022/04/23 06:56:46;;;;;;;25.13;22.63;;;11.40;99.90;;;;;;5072918;28;20661;-74
2022/04/23 06:59:12;;;;;;;25.47;22.80;;;11.50;99.90;;;;;;5073025;28;20737;-74
2022/04/23 07:01:40;;;;;;;25.97;23.23;;;11.60;99.90;;;;;;5055808;28;20517;-74
2022/04/23 07:04:09;;;;;;;24.83;22.37;;;11.70;99.90;;;;;;5072989;28;20159;-75
2022/04/23 07:06:34;;;;;;;25.63;22.93;;;11.80;75.50;;;;;;5089464;22;20218;31
2022/04/23 07:09:00;;;;;;;25.03;22.53;;;11.80;1.00;;;;;;5009753;28;20205;-78
2022/04/23 07:11:26;;;;;;;25.43;21.67;;;11.90;1.00;;;;;;5010889;28;20169;-78
2022/04/23 07:13:51;;;;;;;22.83;20.47;;;12.00;1.00;;;;;;5011887;28;20169;-78
2022/04/23 07:16:17;;;;;;;27.27;20.33;;;12.10;99.90;;;;;;5012305;28;20173;-76
2022/04/23 07:18:43;;;;;;;25.50;21.97;;;12.10;1.00;;;;;;5011028;28;20306;-77
2022/04/23 07:21:08;;;;;;;22.20;20.00;;;12.20;1.00;;;;;;5011301;28;20230;-78
2022/04/23 07:26:19;;;;;;;21.67;19.57;;;12.40;99.90;;;;;;5012689;28;20160;-78
2022/04/23 07:28:45;;;;;;;21.73;19.47;;;12.40;97.30;;;;;;5012272;28;20197;-78
2022/04/23 07:31:11;;;;;;;21.67;19.37;;;12.40;1.00;;;;;;5012759;28;20209;-78
2022/04/23 07:39:04;;;;;;;19.47;17.47;;;12.70;1.00;;;;;;5017938;28;20192;-78
2022/04/23 07:41:30;;;;;;;21.80;18.50;;;12.80;99.90;;;;;;5021138;28;20232;-77
2022/04/23 07:43:59;;;;;;;21.37;18.67;;;12.90;99.90;;;;;;5022103;28;20169;-77
2022/04/23 07:46:24;;;;;;;20.63;18.43;;;13.00;1.00;;;;;;5016270;28;20173;-78
2022/04/23 07:48:50;;;;;;;21.23;19.03;;;13.10;1.00;;;;;;5015615;28;20196;-78
2022/04/23 07:51:16;;;;;;;20.57;17.30;;;13.10;1.00;;;;;;5014299;28;20173;-78
2022/04/23 07:53:42;;;;;;;20.87;18.47;;;13.10;1.00;;;;;;5013607;28;20651;-78
2022/04/23 07:56:07;;;;;;;19.63;17.53;;;13.20;99.90;;;;;;5014255;28;20173;-77
2022/04/23 07:58:33;;;;;;;18.80;16.80;;;13.30;99.90;;;;;;5012027;28;20700;-77
2022/04/23 08:00:58;;;;;;;18.97;16.40;;;13.40;63.30;;;;;;5012733;28;20669;-77
2022/04/23 08:03:24;;;;;;;19.53;17.53;;;13.50;99.90;;;;;;5013835;28;20201;-78
2022/04/23 08:05:49;;;;;;;17.97;16.27;;;13.50;1.00;;;;;;5015937;28;20169;-78
2022/04/23 08:08:17;;;;;;;19.20;17.30;;;13.60;13.80;;;;;;5016239;28;20300;-79
2022/04/23 08:10:44;;;;;;;20.33;17.87;;;13.60;1.00;;;;;;5016890;28;20184;-77
2022/04/23 08:13:09;;;;;;;18.97;17.03;;;13.70;1.00;;;;;;5015714;28;20173;-79
2022/04/23 08:15:35;;;;;;;18.80;16.80;;;13.70;1.00;;;;;;5014545;28;20235;-78
2022/04/23 08:18:01;;;;;;;18.93;17.00;;;13.80;99.90;;;;;;5019178;28;20205;-78
2022/04/23 08:20:30;;;;;;;18.57;16.57;;;13.90;99.90;;;;;;5025896;28;20245;-77
2022/04/23 08:22:56;;;;;;;18.27;16.40;;;13.90;99.90;;;;;;5027648;28;20677;-78
2022/04/23 08:25:21;;;;;;;20.93;18.13;;;14.00;1.00;;;;;;5015888;28;20177;-78
2022/04/23 08:27:52;;;;;;;21.63;16.43;;;14.10;1.00;;;;;;5013521;28;20588;-78
2022/04/23 08:30:36;;;;;;;18.27;16.33;;;14.20;1.00;;;;;;5013251;28;20209;-78
2022/04/23 08:33:03;;;;;;;18.73;16.83;;;14.30;1.00;;;;;;5011787;28;20170;-77
2022/04/23 08:35:30;;;;;;;18.30;16.43;;;14.40;1.00;;;;;;5011862;28;20189;-77
2022/04/23 08:37:55;;;;;;;16.77;15.07;;;14.50;1.00;;;;;;5013229;28;20197;-78
2022/04/23 08:40:22;;;;;;;17.50;15.70;;;14.60;99.90;;;;;;5013400;28;20183;-78
2022/04/23 08:42:47;;;;;;;17.40;15.67;;;14.60;3.40;;;;;;5011938;28;20177;-78
2022/04/23 08:45:13;;;;;;;20.37;17.43;;;14.70;99.90;;;;;;5013507;28;20537;-77
2022/04/23 08:47:46;;;;;;;17.63;15.83;;;14.70;1.00;;;;;;5013407;28;20242;-79
2022/04/23 08:50:13;;;;;;;18.33;16.37;;;14.80;24.80;;;;;;5014771;28;20169;-78
2022/04/23 08:52:42;;;;;;;17.43;15.63;;;14.90;1.00;;;;;;5013853;28;20206;-78
2022/04/23 08:55:08;;;;;;;18.40;16.40;;;15.00;1.00;;;;;;5013457;28;20185;-78
2022/04/23 08:57:36;;;;;;;17.13;15.23;;;15.00;1.00;;;;;;5011399;28;20236;-76
2022/04/23 09:00:08;;;;;;;17.13;15.43;;;15.00;1.00;;;;;;5012863;28;20236;-79
2022/04/23 09:02:35;;;;;;;17.13;15.43;;;15.10;99.90;;;;;;5013094;28;20173;-78
2022/04/23 09:05:00;;;;;;;16.10;14.50;;;15.20;99.90;;;;;;5011563;28;20169;-78
2022/04/23 09:07:28;;;;;;;17.03;15.23;;;15.30;99.90;;;;;;5012999;28;20212;-79
2022/04/23 09:09:55;;;;;;;17.17;14.70;;;15.40;99.90;;;;;;5013508;28;20218;-79
2022/04/23 09:12:27;;;;;;;16.00;14.30;;;15.40;1.00;;;;;;5014093;28;20186;-79
2022/04/23 09:15:03;;;;;;;18.30;15.43;;;15.40;1.00;;;;;;5013309;28;20181;-79
2022/04/23 09:25:48;;;;;;;13.43;12.03;;;15.60;1.00;;;;;;5015524;28;20164;-79
2022/04/23 09:28:23;;;;;;;12.90;11.50;;;15.70;99.90;;;;;;5014069;28;20200;-78
2022/04/23 09:30:56;;;;;;;11.63;10.53;;;15.80;99.90;;;;;;5014164;28;20180;-79
2022/04/23 09:33:29;;;;;;;12.97;11.57;;;16.00;99.90;;;;;;5014836;28;20181;-79
2022/04/23 09:35:55;;;;;;;12.23;9.77;;;16.10;1.00;;;;;;5013568;28;20182;-79
2022/04/23 09:38:22;;;;;;;10.97;9.87;;;16.10;1.00;;;;;;5014492;28;20205;-79
2022/04/23 09:40:58;;;;;;;10.80;9.70;;;16.30;51.10;;;;;;5013382;28;20249;-79
2022/04/23 09:43:29;;;;;;;10.13;9.03;;;16.40;1.00;;;;;;5013203;28;20173;-79
2022/04/23 09:46:08;;;;;;;10.40;9.27;;;16.40;1.00;;;;;;5013445;28;20173;-78
2022/04/23 09:48:35;;;;;;;10.80;9.70;;;16.50;1.00;;;;;;5013028;28;20212;-79
2022/04/23 09:51:01;;;;;;;11.90;10.00;;;16.60;99.90;;;;;;5014318;28;20260;-79
2022/04/23 09:53:28;;;;;;;10.03;8.93;;;16.70;1.00;;;;;;5011176;28;20206;-78
2022/04/23 09:56:05;;;;;;;9.97;8.90;;;16.90;1.00;;;;;;5014118;28;20200;-78
2022/04/23 09:58:33;;;;;;;9.40;8.43;;;17.00;99.90;;;;;;5012555;28;20211;-79
2022/04/23 10:00:59;;;;;;;10.93;9.60;;;17.10;99.90;;;;;;5012296;28;20269;-79
2022/04/23 10:03:30;;;;;;;10.07;8.67;;;17.20;99.90;;;;;;5014016;28;20173;-80
2022/04/23 10:05:57;;;;;;;9.90;8.97;;;17.20;99.90;;;;;;5014201;28;20183;-79
2022/04/23 10:08:30;;;;;;;10.07;8.40;;;17.30;99.20;;;;;;5013476;28;20221;-78
2022/04/23 10:10:59;;;;;;;11.30;8.73;;;17.30;1.00;;;;;;5013813;28;20206;-79
2022/04/23 10:13:29;;;;;;;12.13;8.40;;;17.30;93.60;;;;;;5013705;28;20225;-78
2022/04/23 10:15:55;;;;;;;12.97;8.67;;;17.30;1.00;;;;;;5013055;28;20195;-79
2022/04/23 10:18:22;;;;;;;9.57;8.57;;;17.40;99.90;;;;;;5010906;28;20435;-79
2022/04/23 10:20:54;;;;;;;11.17;7.80;;;17.50;15.10;;;;;;5014451;28;20412;-80
2022/04/23 10:23:43;;;;;;;8.60;7.80;;;17.60;37.60;;;;;;5013791;28;20239;-79
2022/04/23 10:26:32;;;;;;;8.67;7.77;;;17.70;1.00;;;;;;5031456;28;20201;-77
2022/04/23 10:28:58;;;;;;;9.30;8.30;;;17.70;1.00;;;;;;5011583;28;20184;-79
2022/04/23 10:31:24;;;;;;;11.10;7.50;;;17.50;1.00;;;;;;5013173;28;20264;-79
2022/04/23 10:33:51;;;;;;;8.53;7.33;;;17.70;1.00;;;;;;5011471;28;20204;-78
2022/04/23 10:36:21;;;;;;;9.23;6.80;;;17.70;1.00;;;;;;5012031;28;20225;-77
2022/04/23 10:38:51;;;;;;;8.20;7.17;;;17.80;1.00;;;;;;5012375;28;20206;-78
2022/04/23 10:41:22;;;;;;;7.83;6.50;;;17.80;1.00;;;;;;5011234;28;20634;-79
2022/04/23 10:43:57;;;;;;;8.07;7.27;;;17.90;1.00;;;;;;5018933;28;20171;-78
2022/04/23 10:46:38;;;;;;;6.90;6.03;;;18.00;1.00;;;;;;5025691;28;20173;-78
2022/04/23 10:49:14;;;;;;;7.43;6.43;;;18.10;1.00;;;;;;5020627;28;20180;-80
2022/04/23 10:51:56;;;;;;;8.30;6.50;;;18.00;99.90;;;;;;5014337;28;20183;-80
2022/04/23 10:54:45;;;;;;;8.43;6.70;;;18.00;1.00;;;;;;5015135;28;20169;-80
2022/04/23 10:57:15;;;;;;;9.13;6.27;;;17.90;99.90;;;;;;5012250;28;20207;-79
2022/04/23 10:59:48;;;;;;;7.37;5.97;;;18.00;99.90;;;;;;5012361;28;20201;-78
2022/04/23 11:02:23;;;;;;;6.70;5.97;;;18.10;99.90;;;;;;5013102;28;20252;-78
2022/04/23 11:13:59;;;;;;;8.50;6.50;;;18.30;99.90;;;;;;5016605;28;20173;-78
2022/04/23 11:16:30;;;;;;;6.50;5.90;;;18.40;99.90;;;;;;5015828;28;20280;-78
2022/04/23 11:18:58;;;;;;;6.53;5.83;;;18.30;99.90;;;;;;5017693;28;20205;-80
2022/04/23 11:21:30;;;;;;;10.63;6.93;;;18.30;99.90;;;;;;5018515;28;20173;-78
2022/04/23 11:23:58;;;;;;;6.30;5.70;;;18.20;99.90;;;;;;5026372;28;20177;-79
2022/04/23 11:26:44;;;;;;;6.97;5.33;;;18.20;99.90;;;;;;5021440;28;20230;-79
2022/04/23 11:29:11;;;;;;;9.20;6.77;;;18.30;99.90;;;;;;5018263;28;20188;-79
2022/04/23 11:31:37;;;;;;;9.20;6.70;;;18.20;99.90;;;;;;5018330;28;20231;-79
2022/04/23 11:34:04;;;;;;;8.93;6.27;;;18.20;99.90;;;;;;5016500;28;20180;-79
2022/04/23 11:36:31;;;;;;;7.23;6.53;;;18.20;99.90;;;;;;5015534;28;20181;-79
2022/04/23 11:38:59;;;;;;;7.13;6.40;;;18.20;99.90;;;;;;5017103;28;20236;-80
2022/04/23 11:41:35;;;;;;;6.67;5.97;;;18.30;99.90;;;;;;5016995;28;20181;-79
2022/04/23 11:44:12;;;;;;;7.67;6.47;;;18.20;99.90;;;;;;5016520;28;20229;-80
2022/04/23 11:46:42;;;;;;;7.77;6.40;;;18.20;99.90;;;;;;5017724;28;20180;-80
2022/04/23 11:49:08;;;;;;;7.07;6.40;;;18.20;99.90;;;;;;5017472;28;20176;-79
2022/04/23 11:51:33;;;;;;;7.20;6.50;;;18.10;99.90;;;;;;5017485;28;20188;-79
2022/04/23 11:54:00;;;;;;;7.53;6.83;;;18.40;99.90;;;;;;5017459;28;20188;-79
2022/04/23 11:56:28;;;;;;;7.90;6.50;;;18.40;99.90;;;;;;5016302;28;20189;-79
2022/04/23 11:58:56;;;;;;;8.07;6.73;;;18.60;99.90;;;;;;5016605;28;20301;-79
2022/04/23 12:01:26;;;;;;;7.53;6.63;;;18.70;72.10;;;;;;5017634;28;20191;-79
2022/04/23 12:03:54;;;;;;;7.97;7.17;;;18.80;99.90;;;;;;5017634;28;20623;-79
2022/04/23 12:06:22;;;;;;;10.07;7.53;;;18.90;99.90;;;;;;5017311;28;20252;-78
2022/04/23 12:08:47;;;;;;;7.77;6.97;;;18.80;46.50;;;;;;5016878;28;20273;-78
2022/04/23 12:11:26;;;;;;;9.53;7.70;;;18.80;79.60;;;;;;5015768;28;20185;-79
2022/04/23 12:13:52;;;;;;;7.57;6.77;;;18.70;87.20;;;;;;5016213;28;20540;-80
2022/04/23 12:16:33;;;;;;;8.37;7.20;;;18.80;99.80;;;;;;5017581;28;20188;-79
2022/04/23 12:19:07;;;;;;;7.33;6.63;;;18.70;12.60;;;;;;5017431;28;20197;-80
2022/04/23 12:21:34;;;;;;;9.50;6.57;;;18.80;56.10;;;;;;5017702;28;20243;-79
2022/04/23 12:24:00;;;;;;;8.20;7.20;;;18.90;99.90;;;;;;5016666;28;20567;-78
2022/04/23 12:26:37;;;;;;;7.87;7.10;;;18.80;99.90;;;;;;5017144;28;20177;-79
2022/04/23 12:43:21;;;;;;;9.37;8.47;;;18.70;99.90;;;;;;5018025;28;20568;-79
2022/04/23 12:45:51;;;;;;;8.87;7.97;;;18.80;69.30;;;;;;5016411;28;20158;-81
2022/04/23 12:48:17;;;;;;;11.37;8.17;;;18.90;99.90;;;;;;5014916;28;20197;-79
2022/04/23 12:50:44;;;;;;;9.13;8.23;;;18.90;92.80;;;;;;5013892;28;20181;-79
2022/04/23 12:53:10;;;;;;;10.90;9.00;;;19.00;49.50;;;;;;5015824;28;20176;-78
2022/04/23 12:55:37;;;;;;;9.67;7.83;;;19.00;99.90;;;;;;5015282;28;20546;-79
2022/04/23 12:58:02;;;;;;;8.87;7.90;;;19.10;23.30;;;;;;5013367;28;20201;-79
2022/04/23 13:00:30;;;;;;;8.67;7.87;;;19.10;24.80;;;;;;5015240;28;20248;-79
2022/04/23 13:03:10;;;;;;;8.60;7.67;;;19.20;99.90;;;;;;5015493;28;20180;-80
2022/04/23 13:05:36;;;;;;;9.80;8.07;;;19.20;99.90;;;;;;5015976;28;20153;-79
2022/04/23 13:10:46;;;;;;;7.87;7.07;;;19.50;41.20;;;;;;5080636;28;20583;-77
2022/04/23 13:13:12;;;;;;;8.23;7.07;;;19.50;1.00;;;;;;5061849;28;20182;-76
2022/04/23 13:15:39;;;;;;;7.77;6.97;;;19.60;1.00;;;;;;5080140;28;20186;-76
2022/04/23 13:18:05;;;;;;;8.50;7.37;;;19.60;1.00;;;;;;5062422;28;20229;-77
2022/04/23 13:20:31;;;;;;;8.03;7.23;;;19.50;1.00;;;;;;5078641;28;20180;-76
2022/04/23 13:22:59;;;;;;;7.23;6.53;;;19.50;1.00;;;;;;5062498;28;20171;-76
2022/04/23 13:25:25;;;;;;;6.73;6.03;;;19.40;1.00;;;;;;5061162;28;20553;-77
2022/04/23 13:27:51;;;;;;;6.60;6.00;;;19.20;1.00;;;;;;5060633;28;20199;-77